CheckWX is a tool to help pilots better visualize weather data.  It is not intended as a substitute for an official pre-flight weather briefing.

17:31:42 UTC

LDRI TAF
Rijeka Airport
Rijeka, Croatia
TAF LDRI 201125Z 2012/2112 15010KT 9999 SCT020 TX22/2012Z TN16/2104Z BECMG 2016/2018 12006KT PROB30 TEMPO 2018/2106 BKN012

Oct-20@
12:00 UTC

Oct-20 @ 12:00 UTC

Oct-20@
16:00 UTC

Oct-20 @ 16:00 UTC

TAF LDRI 201125Z 2012/2112 15010KT 9999 SCT020 TX22/2012Z TN16/2104Z

Expired

Wind
  • 150° at 10 KTS
Cloud Levels
  • Scattered at 2,000' AGL

Oct-20@
16:00 UTC

Oct-20 @ 16:00 UTC

Oct-21@
12:00 UTC

Oct-21 @ 12:00 UTC

BECMG 2016/2018 12006KT

Becoming

Becoming Conditions expected by Sun, Oct 20, 2019 @ 18:00 UTC

Wind
  • 120° at 6 KTS
Cloud Levels
  • Scattered at 2,000' AGL

Oct-20@
18:00 UTC

Oct-20 @ 18:00 UTC

Oct-21@
06:00 UTC

Oct-21 @ 06:00 UTC

PROB30 TEMPO 2018/2106 BKN012

Temporary - 30% Likelihood

Temporary - 30% Likelihood during this time.

Cloud Levels
  • Broken at 1,200' AGL